sensor_id;sensor_type;location;lat;lon;timestamp;pressure;altitude;pressure_sealevel;temperature
77331;BMP280;66405;48.328;7.820;2023-03-01T00:02:05;100641.13;;;-0.23
77331;BMP280;66405;48.328;7.820;2023-03-01T00:04:32;100635.41;;;-0.25
77331;BMP280;66405;48.328;7.820;2023-03-01T00:06:58;100638.41;;;-0.27
77331;BMP280;66405;48.328;7.820;2023-03-01T00:09:26;100636.09;;;-0.28
77331;BMP280;66405;48.328;7.820;2023-03-01T00:11:51;100639.88;;;-0.29
77331;BMP280;66405;48.328;7.820;2023-03-01T00:14:17;100637.09;;;-0.33
77331;BMP280;66405;48.328;7.820;2023-03-01T00:16:45;100636.31;;;-0.34
77331;BMP280;66405;48.328;7.820;2023-03-01T00:19:16;100629.06;;;-0.37
77331;BMP280;66405;48.328;7.820;2023-03-01T00:21:44;100631.28;;;-0.39
77331;BMP280;66405;48.328;7.820;2023-03-01T00:24:10;100630.53;;;-0.39
77331;BMP280;66405;48.328;7.820;2023-03-01T00:26:36;100614.47;;;-0.43
77331;BMP280;66405;48.328;7.820;2023-03-01T00:29:03;100620.56;;;-0.42
77331;BMP280;66405;48.328;7.820;2023-03-01T00:31:30;100625.47;;;-0.44
77331;BMP280;66405;48.328;7.820;2023-03-01T00:33:59;100622.38;;;-0.47
77331;BMP280;66405;48.328;7.820;2023-03-01T00:36:27;100616.66;;;-0.49
77331;BMP280;66405;48.328;7.820;2023-03-01T00:38:53;100620.41;;;-0.50
77331;BMP280;66405;48.328;7.820;2023-03-01T00:41:20;100605.91;;;-0.52
77331;BMP280;66405;48.328;7.820;2023-03-01T00:43:45;100617.69;;;-0.53
77331;BMP280;66405;48.328;7.820;2023-03-01T00:46:17;100621.78;;;-0.56
77331;BMP280;66405;48.328;7.820;2023-03-01T00:48:43;100617.16;;;-0.59
77331;BMP280;66405;48.328;7.820;2023-03-01T00:51:13;100604.22;;;-0.60
77331;BMP280;66405;48.328;7.820;2023-03-01T00:53:39;100614.41;;;-0.63
77331;BMP280;66405;48.328;7.820;2023-03-01T00:56:06;100612.09;;;-0.64
77331;BMP280;66405;48.328;7.820;2023-03-01T00:58:32;100613.22;;;-0.65
77331;BMP280;66405;48.328;7.820;2023-03-01T01:00:58;100611.59;;;-0.70
77331;BMP280;66405;48.328;7.820;2023-03-01T01:03:25;100612.28;;;-0.73
77331;BMP280;66405;48.328;7.820;2023-03-01T01:05:54;100611.84;;;-0.75
77331;BMP280;66405;48.328;7.820;2023-03-01T01:08:20;100619.31;;;-0.81
77331;BMP280;66405;48.328;7.820;2023-03-01T01:10:46;100602.94;;;-0.83
77331;BMP280;66405;48.328;7.820;2023-03-01T01:13:13;100610.91;;;-0.83
77331;BMP280;66405;48.328;7.820;2023-03-01T01:15:39;100604.06;;;-0.84
77331;BMP280;66405;48.328;7.820;2023-03-01T01:18:04;100603.28;;;-0.84
77331;BMP280;66405;48.328;7.820;2023-03-01T01:20:30;100599.09;;;-0.85
77331;BMP280;66405;48.328;7.820;2023-03-01T01:22:55;100605.16;;;-0.85
77331;BMP280;66405;48.328;7.820;2023-03-01T01:25:22;100599.09;;;-0.85
77331;BMP280;66405;48.328;7.820;2023-03-01T01:27:50;100586.94;;;-0.86
77331;BMP280;66405;48.328;7.820;2023-03-01T01:30:16;100586.94;;;-0.86
77331;BMP280;66405;48.328;7.820;2023-03-01T01:32:41;100582.38;;;-0.86
77331;BMP280;66405;48.328;7.820;2023-03-01T01:35:07;100576.31;;;-0.86
77331;BMP280;66405;48.328;7.820;2023-03-01T01:37:34;100564.16;;;-0.87
77331;BMP280;66405;48.328;7.820;2023-03-01T01:40:00;100565.69;;;-0.86
77331;BMP280;66405;48.328;7.820;2023-03-01T01:42:27;100562.97;;;-0.90
77331;BMP280;66405;48.328;7.820;2023-03-01T01:45:24;100564.84;;;-0.90
77331;BMP280;66405;48.328;7.820;2023-03-01T01:47:52;100562.53;;;-0.92
77331;BMP280;66405;48.328;7.820;2023-03-01T01:50:19;100554.56;;;-0.92
77331;BMP280;66405;48.328;7.820;2023-03-01T01:52:46;100569.75;;;-0.92
77331;BMP280;66405;48.328;7.820;2023-03-01T01:55:20;100553.47;;;-0.91
77331;BMP280;66405;48.328;7.820;2023-03-01T01:57:53;100556.88;;;-0.90
77331;BMP280;66405;48.328;7.820;2023-03-01T02:00:27;100556.13;;;-0.91
77331;BMP280;66405;48.328;7.820;2023-03-01T02:03:13;100557.22;;;-0.92
77331;BMP280;66405;48.328;7.820;2023-03-01T02:08:26;100560.66;;;-0.91
77331;BMP280;66405;48.328;7.820;2023-03-01T02:10:53;100551.91;;;-0.92
77331;BMP280;66405;48.328;7.820;2023-03-01T02:13:19;100547.72;;;-0.93
77331;BMP280;66405;48.328;7.820;2023-03-01T02:15:45;100554.13;;;-0.94
77331;BMP280;66405;48.328;7.820;2023-03-01T02:18:13;100551.06;;;-0.96
77331;BMP280;66405;48.328;7.820;2023-03-01T02:20:48;100548.75;;;-0.98
77331;BMP280;66405;48.328;7.820;2023-03-01T02:23:16;100546.44;;;-0.99
77331;BMP280;66405;48.328;7.820;2023-03-01T02:25:51;100543.00;;;-1.00
77331;BMP280;66405;48.328;7.820;2023-03-01T02:28:31;100546.44;;;-0.99
77331;BMP280;66405;48.328;7.820;2023-03-01T02:30:57;100538.81;;;-1.01
77331;BMP280;66405;48.328;7.820;2023-03-01T02:33:42;100530.84;;;-1.01
77331;BMP280;66405;48.328;7.820;2023-03-01T02:36:14;100528.19;;;-1.01
77331;BMP280;66405;48.328;7.820;2023-03-01T02:38:41;100525.53;;;-1.01
77331;BMP280;66405;48.328;7.820;2023-03-01T02:41:08;100532.75;;;-1.01
77331;BMP280;66405;48.328;7.820;2023-03-01T02:43:36;100529.34;;;-1.02
77331;BMP280;66405;48.328;7.820;2023-03-01T02:46:07;100529.34;;;-1.02
77331;BMP280;66405;48.328;7.820;2023-03-01T02:49:16;100524.78;;;-1.01
77331;BMP280;66405;48.328;7.820;2023-03-01T02:54:53;100524.34;;;-1.03
77331;BMP280;66405;48.328;7.820;2023-03-01T02:57:23;100527.72;;;-1.06
77331;BMP280;66405;48.328;7.820;2023-03-01T02:59:50;100525.81;;;-1.06
77331;BMP280;66405;48.328;7.820;2023-03-01T03:02:20;100517.09;;;-1.06
77331;BMP280;66405;48.328;7.820;2023-03-01T03:05:12;100519.75;;;-1.06
77331;BMP280;66405;48.328;7.820;2023-03-01T03:07:40;100507.59;;;-1.07
77331;BMP280;66405;48.328;7.820;2023-03-01T03:10:09;100517.44;;;-1.08
77331;BMP280;66405;48.328;7.820;2023-03-01T03:12:37;100511.34;;;-1.08
77331;BMP280;66405;48.328;7.820;2023-03-01T03:15:04;100504.16;;;-1.08
77331;BMP280;66405;48.328;7.820;2023-03-01T03:17:36;100494.66;;;-1.09
77331;BMP280;66405;48.328;7.820;2023-03-01T03:20:03;100499.97;;;-1.09
77331;BMP280;66405;48.328;7.820;2023-03-01T03:22:29;100496.56;;;-1.10
77331;BMP280;66405;48.328;7.820;2023-03-01T03:24:55;100497.31;;;-1.09
77331;BMP280;66405;48.328;7.820;2023-03-01T03:27:20;100501.84;;;-1.10
77331;BMP280;66405;48.328;7.820;2023-03-01T03:29:45;100509.81;;;-1.10
77331;BMP280;66405;48.328;7.820;2023-03-01T03:32:11;100499.19;;;-1.10
77331;BMP280;66405;48.328;7.820;2023-03-01T03:34:36;100493.47;;;-1.12
77331;BMP280;66405;48.328;7.820;2023-03-01T03:37:02;100495.34;;;-1.12
77331;BMP280;66405;48.328;7.820;2023-03-01T03:39:27;100495.34;;;-1.12
77331;BMP280;66405;48.328;7.820;2023-03-01T03:41:54;100498.00;;;-1.12
77331;BMP280;66405;48.328;7.820;2023-03-01T03:44:20;100495.69;;;-1.14
77331;BMP280;66405;48.328;7.820;2023-03-01T03:46:46;100494.50;;;-1.16
77331;BMP280;66405;48.328;7.820;2023-03-01T03:49:11;100498.25;;;-1.17
77331;BMP280;66405;48.328;7.820;2023-03-01T03:51:37;100485.34;;;-1.19
77331;BMP280;66405;48.328;7.820;2023-03-01T03:54:02;100491.75;;;-1.20
77331;BMP280;66405;48.328;7.820;2023-03-01T03:56:28;100491.31;;;-1.22
77331;BMP280;66405;48.328;7.820;2023-03-01T03:58:53;100491.25;;;-1.26
77331;BMP280;66405;48.328;7.820;2023-03-01T04:01:18;100485.41;;;-1.31
77331;BMP280;66405;48.328;7.820;2023-03-01T04:03:44;100486.44;;;-1.36
77331;BMP280;66405;48.328;7.820;2023-03-01T04:06:14;100490.19;;;-1.37
77331;BMP280;66405;48.328;7.820;2023-03-01T04:08:40;100484.78;;;-1.41
77331;BMP280;66405;48.328;7.820;2023-03-01T04:11:06;100488.91;;;-1.43
77331;BMP280;66405;48.328;7.820;2023-03-01T04:13:51;100492.66;;;-1.44
77331;BMP280;66405;48.328;7.820;2023-03-01T04:16:17;100482.81;;;-1.44
77331;BMP280;66405;48.328;7.820;2023-03-01T04:18:43;100481.78;;;-1.39
77331;BMP280;66405;48.328;7.820;2023-03-01T04:21:09;100484.22;;;-1.34
77331;BMP280;66405;48.328;7.820;2023-03-01T04:23:35;100481.31;;;-1.29
77331;BMP280;66405;48.328;7.820;2023-03-01T04:26:01;100470.47;;;-1.23
77331;BMP280;66405;48.328;7.820;2023-03-01T04:28:35;100479.69;;;-1.17
77331;BMP280;66405;48.328;7.820;2023-03-01T04:31:05;100481.00;;;-1.11
77331;BMP280;66405;48.328;7.820;2023-03-01T04:33:42;100474.72;;;-1.03
77331;BMP280;66405;48.328;7.820;2023-03-01T04:36:09;100480.94;;;-0.95
77331;BMP280;66405;48.328;7.820;2023-03-01T04:38:36;100468.19;;;-0.89
77331;BMP280;66405;48.328;7.820;2023-03-01T04:41:04;100468.38;;;-0.82
77331;BMP280;66405;48.328;7.820;2023-03-01T04:43:29;100461.66;;;-0.76
77331;BMP280;66405;48.328;7.820;2023-03-01T04:46:00;100472.78;;;-0.70
77331;BMP280;66405;48.328;7.820;2023-03-01T04:48:28;100468.31;;;-0.66
77331;BMP280;66405;48.328;7.820;2023-03-01T04:50:53;100468.38;;;-0.63
77331;BMP280;66405;48.328;7.820;2023-03-01T04:53:19;100460.16;;;-0.57
77331;BMP280;66405;48.328;7.820;2023-03-01T04:55:44;100462.97;;;-0.50
77331;BMP280;66405;48.328;7.820;2023-03-01T04:58:09;100458.94;;;-0.44
77331;BMP280;66405;48.328;7.820;2023-03-01T05:00:35;100465.50;;;-0.38
77331;BMP280;66405;48.328;7.820;2023-03-01T05:03:01;100459.13;;;-0.33
77331;BMP280;66405;48.328;7.820;2023-03-01T05:05:37;100460.09;;;-0.25
77331;BMP280;66405;48.328;7.820;2023-03-01T05:08:06;100463.13;;;-0.23
77331;BMP280;66405;48.328;7.820;2023-03-01T05:10:34;100462.09;;;-0.19
77331;BMP280;66405;48.328;7.820;2023-03-01T05:13:01;100458.69;;;-0.19
77331;BMP280;66405;48.328;7.820;2023-03-01T05:15:29;100456.09;;;-0.16
77331;BMP280;66405;48.328;7.820;2023-03-01T05:17:57;100456.50;;;-0.13
77331;BMP280;66405;48.328;7.820;2023-03-01T05:20:25;100447.84;;;-0.10
77331;BMP280;66405;48.328;7.820;2023-03-01T05:22:52;100444.88;;;-0.05
77331;BMP280;66405;48.328;7.820;2023-03-01T05:25:22;100439.66;;;-0.02
77331;BMP280;66405;48.328;7.820;2023-03-01T05:27:48;100446.91;;;0.02
77331;BMP280;66405;48.328;7.820;2023-03-01T05:30:14;100454.59;;;0.07
77331;BMP280;66405;48.328;7.820;2023-03-01T05:32:47;100444.75;;;0.07
77331;BMP280;66405;48.328;7.820;2023-03-01T05:35:16;100443.28;;;0.10
77331;BMP280;66405;48.328;7.820;2023-03-01T05:37:47;100453.16;;;0.09
77331;BMP280;66405;48.328;7.820;2023-03-01T05:40:16;100445.56;;;0.11
77331;BMP280;66405;48.328;7.820;2023-03-01T05:42:43;100441.44;;;0.14
77331;BMP280;66405;48.328;7.820;2023-03-01T05:45:13;100449.81;;;0.16
77331;BMP280;66405;48.328;7.820;2023-03-01T05:47:43;100448.75;;;0.21
77331;BMP280;66405;48.328;7.820;2023-03-01T05:50:17;100456.03;;;0.24
77331;BMP280;66405;48.328;7.820;2023-03-01T05:52:54;100443.50;;;0.24
77331;BMP280;66405;48.328;7.820;2023-03-01T05:55:21;100450.72;;;0.24
77331;BMP280;66405;48.328;7.820;2023-03-01T05:57:47;100455.63;;;0.22
77331;BMP280;66405;48.328;7.820;2023-03-01T06:00:14;100443.13;;;0.22
77331;BMP280;66405;48.328;7.820;2023-03-01T06:02:45;100449.59;;;0.25
77331;BMP280;66405;48.328;7.820;2023-03-01T06:05:12;100440.94;;;0.28
77331;BMP280;66405;48.328;7.820;2023-03-01T06:07:42;100448.97;;;0.32
77331;BMP280;66405;48.328;7.820;2023-03-01T06:10:09;100450.50;;;0.33
77331;BMP280;66405;48.328;7.820;2023-03-01T06:12:37;100447.06;;;0.32
77331;BMP280;66405;48.328;7.820;2023-03-01T06:15:05;100445.53;;;0.31
77331;BMP280;66405;48.328;7.820;2023-03-01T06:17:34;100450.09;;;0.30
77331;BMP280;66405;48.328;7.820;2023-03-01T06:20:08;100448.19;;;0.31
77331;BMP280;66405;48.328;7.820;2023-03-01T06:22:34;100453.16;;;0.33
77331;BMP280;66405;48.328;7.820;2023-03-01T06:24:59;100451.25;;;0.33
77331;BMP280;66405;48.328;7.820;2023-03-01T06:27:25;100460.75;;;0.34
77331;BMP280;66405;48.328;7.820;2023-03-01T06:29:50;100459.28;;;0.37
77331;BMP280;66405;48.328;7.820;2023-03-01T06:32:16;100455.91;;;0.40
77331;BMP280;66405;48.328;7.820;2023-03-01T06:34:41;100450.22;;;0.41
77331;BMP280;66405;48.328;7.820;2023-03-01T06:37:09;100449.91;;;0.43
77331;BMP280;66405;48.328;7.820;2023-03-01T06:39:36;100452.19;;;0.44
77331;BMP280;66405;48.328;7.820;2023-03-01T06:42:02;100456.03;;;0.47
77331;BMP280;66405;48.328;7.820;2023-03-01T06:44:28;100448.47;;;0.49
77331;BMP280;66405;48.328;7.820;2023-03-01T06:46:53;100451.53;;;0.51
77331;BMP280;66405;48.328;7.820;2023-03-01T06:49:19;100442.03;;;0.50
77331;BMP280;66405;48.328;7.820;2023-03-01T06:51:45;100453.47;;;0.54
77331;BMP280;66405;48.328;7.820;2023-03-01T06:54:10;100436.44;;;0.59
77331;BMP280;66405;48.328;7.820;2023-03-01T06:56:39;100430.06;;;0.63
77331;BMP280;66405;48.328;7.820;2023-03-01T06:59:05;100426.34;;;0.68
77331;BMP280;66405;48.328;7.820;2023-03-01T07:01:33;100436.63;;;0.70
77331;BMP280;66405;48.328;7.820;2023-03-01T07:03:58;100424.88;;;0.71
77331;BMP280;66405;48.328;7.820;2023-03-01T07:06:24;100429.88;;;0.76
77331;BMP280;66405;48.328;7.820;2023-03-01T07:08:49;100437.97;;;0.83
77331;BMP280;66405;48.328;7.820;2023-03-01T07:11:17;100427.03;;;0.88
77331;BMP280;66405;48.328;7.820;2023-03-01T07:13:42;100429.38;;;0.93
77331;BMP280;66405;48.328;7.820;2023-03-01T07:16:11;100424.94;;;1.01
77331;BMP280;66405;48.328;7.820;2023-03-01T07:18:36;100435.25;;;1.06
77331;BMP280;66405;48.328;7.820;2023-03-01T07:21:06;100427.34;;;1.10
77331;BMP280;66405;48.328;7.820;2023-03-01T07:23:32;100432.72;;;1.14
77331;BMP280;66405;48.328;7.820;2023-03-01T07:25:57;100415.25;;;1.16
77331;BMP280;66405;48.328;7.820;2023-03-01T07:28:23;100422.84;;;1.18
77331;BMP280;66405;48.328;7.820;2023-03-01T07:30:49;100422.16;;;1.21
77331;BMP280;66405;48.328;7.820;2023-03-01T07:33:14;100419.53;;;1.24
77331;BMP280;66405;48.328;7.820;2023-03-01T07:35:40;100411.94;;;1.27
77331;BMP280;66405;48.328;7.820;2023-03-01T07:38:06;100415.03;;;1.29
77331;BMP280;66405;48.328;7.820;2023-03-01T07:40:31;100425.72;;;1.32
77331;BMP280;66405;48.328;7.820;2023-03-01T07:42:57;100417.38;;;1.37
77331;BMP280;66405;48.328;7.820;2023-03-01T07:45:25;100417.06;;;1.43
77331;BMP280;66405;48.328;7.820;2023-03-01T07:47:52;100417.88;;;1.47
77331;BMP280;66405;48.328;7.820;2023-03-01T07:50:18;100422.94;;;1.55
77331;BMP280;66405;48.328;7.820;2023-03-01T07:52:47;100419.53;;;1.59
77331;BMP280;66405;48.328;7.820;2023-03-01T07:55:14;100414.59;;;1.61
77331;BMP280;66405;48.328;7.820;2023-03-01T07:57:40;100422.59;;;1.61
77331;BMP280;66405;48.328;7.820;2023-03-01T08:00:07;100421.84;;;1.60
77331;BMP280;66405;48.328;7.820;2023-03-01T08:02:37;100415.84;;;1.67
77331;BMP280;66405;48.328;7.820;2023-03-01T08:05:03;100421.94;;;1.71
77331;BMP280;66405;48.328;7.820;2023-03-01T08:07:29;100411.72;;;1.77
77331;BMP280;66405;48.328;7.820;2023-03-01T08:09:54;100412.59;;;1.84
77331;BMP280;66405;48.328;7.820;2023-03-01T08:12:20;100413.75;;;1.91
77331;BMP280;66405;48.328;7.820;2023-03-01T08:14:45;100416.09;;;1.96
77331;BMP280;66405;48.328;7.820;2023-03-01T08:17:13;100420.38;;;2.04
77331;BMP280;66405;48.328;7.820;2023-03-01T08:19:39;100408.59;;;2.09
77331;BMP280;66405;48.328;7.820;2023-03-01T08:22:06;100413.97;;;2.12
77331;BMP280;66405;48.328;7.820;2023-03-01T08:24:31;100409.09;;;2.22
77331;BMP280;66405;48.328;7.820;2023-03-01T08:26:57;100401.94;;;2.29
77331;BMP280;66405;48.328;7.820;2023-03-01T08:29:23;100409.19;;;2.32
77331;BMP280;66405;48.328;7.820;2023-03-01T08:31:50;100411.91;;;2.40
77331;BMP280;66405;48.328;7.820;2023-03-01T08:34:17;100410.06;;;2.51
77331;BMP280;66405;48.328;7.820;2023-03-01T08:36:46;100415.13;;;2.63
77331;BMP280;66405;48.328;7.820;2023-03-01T08:39:15;100404.16;;;2.79
77331;BMP280;66405;48.328;7.820;2023-03-01T08:41:41;100396.97;;;2.87
77331;BMP280;66405;48.328;7.820;2023-03-01T08:44:10;100400.03;;;2.93
77331;BMP280;66405;48.328;7.820;2023-03-01T08:46:39;100392.44;;;3.02
77331;BMP280;66405;48.328;7.820;2023-03-01T08:49:07;100392.88;;;3.19
77331;BMP280;66405;48.328;7.820;2023-03-01T08:51:35;100388.72;;;3.28
77331;BMP280;66405;48.328;7.820;2023-03-01T08:54:14;100376.53;;;3.42
77331;BMP280;66405;48.328;7.820;2023-03-01T08:56:40;100383.84;;;3.52
77331;BMP280;66405;48.328;7.820;2023-03-01T08:59:07;100386.13;;;3.65
77331;BMP280;66405;48.328;7.820;2023-03-01T09:01:36;100375.06;;;3.70
77331;BMP280;66405;48.328;7.820;2023-03-01T09:04:03;100373.53;;;3.72
77331;BMP280;66405;48.328;7.820;2023-03-01T09:06:33;100375.47;;;3.75
77331;BMP280;66405;48.328;7.820;2023-03-01T09:08:59;100378.50;;;3.85
77331;BMP280;66405;48.328;7.820;2023-03-01T09:11:26;100382.34;;;3.98
77331;BMP280;66405;48.328;7.820;2023-03-01T09:13:51;100373.16;;;4.10
77331;BMP280;66405;48.328;7.820;2023-03-01T09:16:18;100375.44;;;4.26
77331;BMP280;66405;48.328;7.820;2023-03-01T09:18:45;100367.41;;;4.37
77331;BMP280;66405;48.328;7.820;2023-03-01T09:21:13;100366.59;;;4.47
77331;BMP280;66405;48.328;7.820;2023-03-01T09:23:43;100360.09;;;4.55
77331;BMP280;66405;48.328;7.820;2023-03-01T09:26:13;100362.72;;;4.70
77331;BMP280;66405;48.328;7.820;2023-03-01T09:28:43;100360.34;;;4.90
77331;BMP280;66405;48.328;7.820;2023-03-01T09:31:13;100359.84;;;5.13
77331;BMP280;66405;48.328;7.820;2023-03-01T09:33:39;100356.97;;;5.46
77331;BMP280;66405;48.328;7.820;2023-03-01T09:36:08;100352.19;;;5.71
77331;BMP280;66405;48.328;7.820;2023-03-01T09:38:35;100352.69;;;6.01
77331;BMP280;66405;48.328;7.820;2023-03-01T09:41:09;100345.72;;;6.42
77331;BMP280;66405;48.328;7.820;2023-03-01T09:46:06;100350.34;;;7.30
77331;BMP280;66405;48.328;7.820;2023-03-01T09:48:39;100346.72;;;7.68
77331;BMP280;66405;48.328;7.820;2023-03-01T09:51:09;100346.72;;;8.08
77331;BMP280;66405;48.328;7.820;2023-03-01T09:53:37;100338.38;;;8.43
77331;BMP280;66405;48.328;7.820;2023-03-01T09:58:52;100329.88;;;8.97
77331;BMP280;66405;48.328;7.820;2023-03-01T10:01:34;100341.28;;;9.22
77331;BMP280;66405;48.328;7.820;2023-03-01T10:09:48;100335.53;;;10.24
77331;BMP280;66405;48.328;7.820;2023-03-01T10:12:19;100336.53;;;10.56
77331;BMP280;66405;48.328;7.820;2023-03-01T10:15:00;100325.50;;;10.89
77331;BMP280;66405;48.328;7.820;2023-03-01T10:22:43;100332.69;;;11.53
77331;BMP280;66405;48.328;7.820;2023-03-01T10:25:17;100330.78;;;11.63
77331;BMP280;66405;48.328;7.820;2023-03-01T10:27:53;100338.63;;;11.61
77331;BMP280;66405;48.328;7.820;2023-03-01T10:30:22;100332.75;;;11.62
77331;BMP280;66405;48.328;7.820;2023-03-01T10:32:56;100325.50;;;11.59
77331;BMP280;66405;48.328;7.820;2023-03-01T10:35:25;100327.66;;;11.86
77331;BMP280;66405;48.328;7.820;2023-03-01T10:38:17;100321.72;;;12.32
77331;BMP280;66405;48.328;7.820;2023-03-01T10:40:56;100311.41;;;12.59
77331;BMP280;66405;48.328;7.820;2023-03-01T10:43:26;100298.63;;;12.59
77331;BMP280;66405;48.328;7.820;2023-03-01T10:45:52;100297.13;;;12.77
77331;BMP280;66405;48.328;7.820;2023-03-01T10:51:04;100291.59;;;13.36
77331;BMP280;66405;48.328;7.820;2023-03-01T10:53:43;100290.63;;;13.67
77331;BMP280;66405;48.328;7.820;2023-03-01T10:56:15;100280.13;;;13.93
77331;BMP280;66405;48.328;7.820;2023-03-01T10:59:05;100288.16;;;14.21
77331;BMP280;66405;48.328;7.820;2023-03-01T11:01:33;100281.25;;;14.44
77331;BMP280;66405;48.328;7.820;2023-03-01T11:06:35;100275.38;;;14.60
77331;BMP280;66405;48.328;7.820;2023-03-01T11:09:14;100269.28;;;14.75
77331;BMP280;66405;48.328;7.820;2023-03-01T11:11:41;100261.03;;;14.84
77331;BMP280;66405;48.328;7.820;2023-03-01T11:16:40;100254.13;;;15.28
77331;BMP280;66405;48.328;7.820;2023-03-01T11:22:07;100242.13;;;15.35
77331;BMP280;66405;48.328;7.820;2023-03-01T11:24:46;100237.97;;;15.54
77331;BMP280;66405;48.328;7.820;2023-03-01T11:30:00;100219.66;;;16.11
77331;BMP280;66405;48.328;7.820;2023-03-01T11:35:35;100215.03;;;16.38
77331;BMP280;66405;48.328;7.820;2023-03-01T11:38:23;100211.50;;;16.31
77331;BMP280;66405;48.328;7.820;2023-03-01T11:40:57;100213.78;;;16.59
77331;BMP280;66405;48.328;7.820;2023-03-01T11:43:35;100200.38;;;16.61
77331;BMP280;66405;48.328;7.820;2023-03-01T11:49:08;100190.47;;;16.38
77331;BMP280;66405;48.328;7.820;2023-03-01T12:16:56;100157.19;;;17.18
77331;BMP280;66405;48.328;7.820;2023-03-01T12:27:50;100139.56;;;18.79
77331;BMP280;66405;48.328;7.820;2023-03-01T12:39:42;100140.22;;;19.25
77331;BMP280;66405;48.328;7.820;2023-03-01T12:47:18;100124.28;;;19.29
77331;BMP280;66405;48.328;7.820;2023-03-01T12:49:55;100118.34;;;19.78
77331;BMP280;66405;48.328;7.820;2023-03-01T12:55:54;100115.19;;;20.65
77331;BMP280;66405;48.328;7.820;2023-03-01T13:01:01;100104.47;;;21.73
77331;BMP280;66405;48.328;7.820;2023-03-01T13:06:07;100106.66;;;22.93
77331;BMP280;66405;48.328;7.820;2023-03-01T13:08:55;100096.56;;;23.57
77331;BMP280;66405;48.328;7.820;2023-03-01T13:11:28;100096.94;;;24.53
77331;BMP280;66405;48.328;7.820;2023-03-01T13:16:47;100082.00;;;25.44
77331;BMP280;66405;48.328;7.820;2023-03-01T13:21:45;100069.84;;;25.93
77331;BMP280;66405;48.328;7.820;2023-03-01T13:29:50;100071.88;;;27.47
77331;BMP280;66405;48.328;7.820;2023-03-01T13:32:25;100058.31;;;28.12
77331;BMP280;66405;48.328;7.820;2023-03-01T13:35:03;100058.78;;;28.53
77331;BMP280;66405;48.328;7.820;2023-03-01T13:37:48;100056.03;;;28.90
77331;BMP280;66405;48.328;7.820;2023-03-01T13:42:45;100059.50;;;29.08
77331;BMP280;66405;48.328;7.820;2023-03-01T13:45:33;100059.50;;;28.80
77331;BMP280;66405;48.328;7.820;2023-03-01T13:48:25;100063.09;;;28.91
77331;BMP280;66405;48.328;7.820;2023-03-01T13:50:55;100060.88;;;29.26
77331;BMP280;66405;48.328;7.820;2023-03-01T13:53:25;100051.25;;;29.47
77331;BMP280;66405;48.328;7.820;2023-03-01T13:55:55;100049.22;;;29.37
77331;BMP280;66405;48.328;7.820;2023-03-01T13:58:24;100048.56;;;29.29
77331;BMP280;66405;48.328;7.820;2023-03-01T14:00:57;100051.03;;;29.15
77331;BMP280;66405;48.328;7.820;2023-03-01T14:03:23;100049.47;;;29.32
77331;BMP280;66405;48.328;7.820;2023-03-01T14:08:35;100039.69;;;29.40
77331;BMP280;66405;48.328;7.820;2023-03-01T14:16:49;100045.72;;;29.10
77331;BMP280;66405;48.328;7.820;2023-03-01T14:19:18;100039.72;;;29.03
77331;BMP280;66405;48.328;7.820;2023-03-01T14:21:47;100033.00;;;28.70
77331;BMP280;66405;48.328;7.820;2023-03-01T14:24:21;100035.00;;;27.97
77331;BMP280;66405;48.328;7.820;2023-03-01T14:26:48;100031.09;;;27.58
77331;BMP280;66405;48.328;7.820;2023-03-01T14:29:27;100045.91;;;27.10
77331;BMP280;66405;48.328;7.820;2023-03-01T14:31:53;100034.22;;;27.11
77331;BMP280;66405;48.328;7.820;2023-03-01T14:34:24;100026.91;;;26.73
77331;BMP280;66405;48.328;7.820;2023-03-01T14:36:50;100021.25;;;26.56
77331;BMP280;66405;48.328;7.820;2023-03-01T14:39:24;100027.31;;;26.62
77331;BMP280;66405;48.328;7.820;2023-03-01T14:41:50;100032.97;;;26.80
77331;BMP280;66405;48.328;7.820;2023-03-01T14:44:21;100025.38;;;27.13
77331;BMP280;66405;48.328;7.820;2023-03-01T14:46:52;100029.75;;;27.41
77331;BMP280;66405;48.328;7.820;2023-03-01T14:49:24;100025.81;;;27.02
77331;BMP280;66405;48.328;7.820;2023-03-01T14:54:49;100031.25;;;27.17
77331;BMP280;66405;48.328;7.820;2023-03-01T14:57:22;100032.84;;;27.03
77331;BMP280;66405;48.328;7.820;2023-03-01T14:59:53;100036.47;;;27.13
77331;BMP280;66405;48.328;7.820;2023-03-01T15:02:22;100036.63;;;27.40
77331;BMP280;66405;48.328;7.820;2023-03-01T15:04:51;100039.16;;;27.46
77331;BMP280;66405;48.328;7.820;2023-03-01T15:07:30;100028.72;;;26.79
77331;BMP280;66405;48.328;7.820;2023-03-01T15:09:58;100027.47;;;26.31
77331;BMP280;66405;48.328;7.820;2023-03-01T15:14:53;100031.84;;;25.55
77331;BMP280;66405;48.328;7.820;2023-03-01T15:17:37;100020.41;;;25.59
77331;BMP280;66405;48.328;7.820;2023-03-01T15:20:15;100031.78;;;25.86
77331;BMP280;66405;48.328;7.820;2023-03-01T15:22:44;100033.09;;;25.93
77331;BMP280;66405;48.328;7.820;2023-03-01T15:25:18;100041.03;;;25.73
77331;BMP280;66405;48.328;7.820;2023-03-01T15:27:49;100038.28;;;25.58
77331;BMP280;66405;48.328;7.820;2023-03-01T15:33:36;100034.75;;;25.80
77331;BMP280;66405;48.328;7.820;2023-03-01T15:38:57;100031.63;;;25.69
77331;BMP280;66405;48.328;7.820;2023-03-01T15:41:28;100031.06;;;25.39
77331;BMP280;66405;48.328;7.820;2023-03-01T15:44:03;100037.34;;;25.25
77331;BMP280;66405;48.328;7.820;2023-03-01T15:46:46;100031.78;;;25.32
77331;BMP280;66405;48.328;7.820;2023-03-01T15:51:59;100031.94;;;25.11
77331;BMP280;66405;48.328;7.820;2023-03-01T15:54:26;100034.28;;;24.92
77331;BMP280;66405;48.328;7.820;2023-03-01T15:56:54;100029.59;;;24.63
77331;BMP280;66405;48.328;7.820;2023-03-01T15:59:20;100021.72;;;23.81
77331;BMP280;66405;48.328;7.820;2023-03-01T16:01:48;100016.03;;;22.89
77331;BMP280;66405;48.328;7.820;2023-03-01T16:04:16;100016.53;;;22.26
77331;BMP280;66405;48.328;7.820;2023-03-01T16:06:51;100020.66;;;21.74
77331;BMP280;66405;48.328;7.820;2023-03-01T16:09:26;100020.97;;;21.19
77331;BMP280;66405;48.328;7.820;2023-03-01T16:11:53;100021.06;;;20.70
77331;BMP280;66405;48.328;7.820;2023-03-01T16:14:19;100021.44;;;20.30
77331;BMP280;66405;48.328;7.820;2023-03-01T16:16:47;100020.47;;;20.27
77331;BMP280;66405;48.328;7.820;2023-03-01T16:19:13;100018.28;;;19.90
77331;BMP280;66405;48.328;7.820;2023-03-01T16:21:41;100019.53;;;19.00
77331;BMP280;66405;48.328;7.820;2023-03-01T16:24:08;100030.34;;;18.30
77331;BMP280;66405;48.328;7.820;2023-03-01T16:26:36;100031.78;;;17.86
77331;BMP280;66405;48.328;7.820;2023-03-01T16:29:02;100032.97;;;17.51